Automatic weather station data:  FRIDAY 12.08.2022

Station: Time: Temperature: Pressure: Humidity: Wind direction: Wind speed:
 Stara planina  16:55  15.6 °C  841.2 hPa  65 %  91 °  1.7 m/s
 Košutnjak  17:00  28.1 °C  990.6 hPa  27 %  308 °  1.7 m/s
 Pančevo  16:56  29.2 °C  1002.5 hPa  35 %  310 °  0.7 m/s
 Kukavica  16:55  18.1 °C  857.8 hPa  100 %  47 °  3.6 m/s
 Ivanjica  16:55  25.7 °C  960.9 hPa  42 %  -  -
 Čačak  16:55  28.3 °C  984.9 hPa  40 %  332 °  1.0 m/s
 Slatina-Čačak  16:05  25.6 °C  -  37 %  335 °  1.2 m/s
 Tamnava  16:55  28.2 °C  1002.6 hPa  31 %  349 °  1.8 m/s
 Baroševac  16:55  28.7 °C  992.1 hPa  30 %  13 °  2.6 m/s
 Gazivode  16:55  20.6 °C  933.7 hPa  69 %  54 °  0.9 m/s
 Leposavić  16:55  26.8 °C  959.5 hPa  34 %  19 °  1.7 m/s
 Kosovska Mitrovica  05:15  16.2 °C  950.4 hPa  100 %  325 °  0.2 m/s
 Zvečan  16:55  23.0 °C  953.4 hPa  87 %  187 °  0.8 m/s
 Pirot  16:55  27.1 °C  967.7 hPa  36 %  107 °  4.5 m/s
 Požarevac  16:55  30.6 °C  1003.5 hPa  27 %  98 °  2.4 m/s
 Laznica-Žagubica  16:55  22.8 °C  930.2 hPa  49 %  356 °  0.6 m/s
 Kladovo-Karataš  16:55  30.2 °C  1004.9 hPa  30 %  99 °  1.4 m/s
 Bajina Bašta  17:00  27.2 °C  985.0 hPa  44 %  112 °  0.6 m/s
 Karajukića Bunari  16:55  17.9 °C  886.0 hPa  73 %  27 °  2.7 m/s
 Krupanj  16:55  26.7 °C  981.0 hPa  36 %  26 °  2.2 m/s
 Prijepolje  16:45  22.5 °C  961.0 hPa  74 %  159 °  1.2 m/s
 Click on station name for more details
Srpski Ћирилица   Srpski Latinica   English English
Директор РХМЗ